Time;durP1;ratioP1;P1;durP2;ratioP2;P2;SDS_P1;SDS_P2;PMS_P1;PMS_P2;Temp;Humidity;BMP_temperature;BMP_pressure;BME280_temperature;BME280_humidity;BME280_pressure;Samples;Min_cycle;Max_cycle;Signal;HPM_P1;HPM_P2
2021/09/30 00:02:14;;;;;;;111.65;54.25;;;12.20;99.90;;;;;;5055497;28;20032;-83
2021/09/30 00:04:40;;;;;;;98.88;52.33;;;12.20;99.90;;;;;;5055678;28;20035;-83
2021/09/30 00:07:07;;;;;;;92.75;48.65;;;12.20;99.90;;;;;;5054418;28;20083;-83
2021/09/30 00:09:38;;;;;;;96.70;49.95;;;12.20;99.90;;;;;;5054048;28;20035;-83
2021/09/30 00:12:08;;;;;;;103.80;49.78;;;12.20;99.90;;;;;;5055820;28;20096;-83
2021/09/30 00:14:55;;;;;;;90.40;47.17;;;12.20;99.90;;;;;;5054386;28;20087;-83
2021/09/30 00:33:52;;;;;;;131.80;56.17;;;12.20;99.90;;;;;;5055094;28;20120;-83
2021/09/30 00:41:46;;;;;;;123.15;55.08;;;12.20;99.90;;;;;;5054796;28;20118;-83
2021/09/30 00:49:37;;;;;;;125.60;55.65;;;12.20;99.90;;;;;;5049315;28;20029;-83
2021/09/30 00:52:11;;;;;;;133.85;58.65;;;12.20;99.90;;;;;;5054958;28;20079;-83
2021/09/30 02:26:12;;;;;;;129.45;62.90;;;12.20;99.90;;;;;;5053331;28;20055;-83
2021/09/30 02:40:08;;;;;;;128.35;63.15;;;12.30;99.90;;;;;;5052976;28;20087;-83
2021/09/30 02:59:20;;;;;;;142.57;62.85;;;12.30;99.90;;;;;;5052452;28;20064;-83
2021/09/30 03:01:47;;;;;;;120.40;58.97;;;12.30;99.90;;;;;;5051296;28;20084;-82
2021/09/30 03:04:14;;;;;;;148.02;68.25;;;12.30;99.90;;;;;;5050387;28;20036;-82
2021/09/30 03:06:42;;;;;;;149.02;66.68;;;12.30;99.90;;;;;;5051380;28;20104;-82
2021/09/30 03:09:08;;;;;;;134.15;63.38;;;12.30;99.90;;;;;;5052462;28;20575;-83
2021/09/30 03:11:38;;;;;;;115.07;58.42;;;12.30;99.90;;;;;;5052586;28;20025;-82
2021/09/30 03:14:06;;;;;;;126.38;59.85;;;12.30;99.90;;;;;;5052358;28;20021;-83
2021/09/30 03:19:15;;;;;;;121.60;60.80;;;12.30;99.90;;;;;;5032986;28;20040;-82
2021/09/30 03:22:13;;;;;;;153.57;64.00;;;12.30;99.90;;;;;;5048242;28;20037;-82
2021/09/30 03:24:40;;;;;;;104.72;53.75;;;12.30;99.90;;;;;;5051116;28;20028;-82
2021/09/30 03:27:07;;;;;;;126.93;61.90;;;12.30;99.90;;;;;;5052531;28;20021;-83
2021/09/30 03:29:32;;;;;;;135.65;61.97;;;12.30;99.90;;;;;;5050751;28;20049;-83
2021/09/30 03:31:59;;;;;;;111.93;57.33;;;12.30;99.90;;;;;;5052469;28;20110;-83
2021/09/30 03:34:25;;;;;;;124.95;60.88;;;12.30;99.90;;;;;;5051012;28;20109;-83
2021/09/30 03:36:51;;;;;;;117.38;60.72;;;12.30;99.90;;;;;;5050707;28;20111;-83
2021/09/30 03:39:23;;;;;;;127.05;61.80;;;12.30;99.90;;;;;;5051042;28;20029;-83
2021/09/30 03:41:50;;;;;;;123.07;58.45;;;12.30;99.90;;;;;;5052351;28;20036;-83
2021/09/30 03:44:15;;;;;;;106.30;55.75;;;12.30;99.90;;;;;;5050990;28;20115;-83
2021/09/30 03:46:43;;;;;;;114.55;60.78;;;12.30;99.90;;;;;;5051027;28;20116;-83
2021/09/30 03:49:13;;;;;;;128.25;61.65;;;12.30;99.90;;;;;;5050867;28;20486;-83
2021/09/30 03:54:32;;;;;;;110.68;54.53;;;12.30;99.90;;;;;;5051787;28;20041;-83
2021/09/30 03:57:08;;;;;;;111.50;56.53;;;12.30;99.90;;;;;;5050880;28;20386;-83
2021/09/30 03:59:34;;;;;;;127.90;61.25;;;12.30;99.90;;;;;;5052754;28;20032;-82
2021/09/30 04:02:03;;;;;;;117.70;59.35;;;12.30;99.90;;;;;;5054358;28;20028;-82
2021/09/30 04:04:36;;;;;;;128.20;60.65;;;12.30;99.90;;;;;;5054290;28;20439;-82
2021/09/30 04:07:08;;;;;;;131.15;64.60;;;12.30;99.90;;;;;;5055947;28;20021;-82
2021/09/30 04:09:36;;;;;;;128.40;61.80;;;12.40;99.90;;;;;;5055616;28;20025;-82
2021/09/30 04:12:05;;;;;;;128.98;60.20;;;12.30;99.90;;;;;;5054398;28;20025;-83
2021/09/30 04:14:31;;;;;;;139.25;62.58;;;12.30;99.90;;;;;;5053324;28;20075;-83
2021/09/30 04:16:57;;;;;;;154.77;68.88;;;12.30;99.90;;;;;;5053618;28;20046;-83
2021/09/30 04:19:23;;;;;;;139.93;63.40;;;12.30;99.90;;;;;;5054822;28;20029;-83
2021/09/30 04:21:51;;;;;;;142.90;65.25;;;12.30;99.90;;;;;;5054522;28;20091;-83
2021/09/30 04:24:18;;;;;;;162.68;71.90;;;12.30;99.90;;;;;;5053723;28;20108;-83
2021/09/30 04:26:44;;;;;;;148.50;65.13;;;12.30;99.90;;;;;;5055344;28;20017;-83
2021/09/30 04:29:10;;;;;;;151.50;67.15;;;12.30;99.90;;;;;;5047713;28;20540;-83
2021/09/30 04:31:36;;;;;;;157.35;67.28;;;12.30;99.90;;;;;;5077522;28;21477;-83
2021/09/30 04:34:02;;;;;;;160.75;69.03;;;12.30;99.90;;;;;;5041017;28;20569;-83
2021/09/30 04:36:28;;;;;;;155.13;68.20;;;12.30;99.90;;;;;;5042119;28;20487;-83
2021/09/30 04:38:55;;;;;;;145.32;66.45;;;12.30;99.90;;;;;;5050996;28;20055;-83
2021/09/30 04:41:21;;;;;;;154.38;67.68;;;12.30;99.90;;;;;;5044107;28;20029;-83
2021/09/30 04:43:48;;;;;;;174.43;74.43;;;12.30;99.90;;;;;;5042593;28;20017;-83
2021/09/30 04:46:20;;;;;;;158.80;67.40;;;12.30;99.90;;;;;;5048622;28;20043;-83
2021/09/30 04:48:46;;;;;;;181.27;77.73;;;12.20;99.90;;;;;;5044664;28;20024;-83
2021/09/30 04:51:12;;;;;;;152.10;70.00;;;12.20;99.90;;;;;;5046104;28;20033;-83
2021/09/30 04:53:38;;;;;;;139.88;63.92;;;12.20;99.90;;;;;;5042617;28;20026;-83
2021/09/30 04:56:04;;;;;;;137.75;64.53;;;12.10;99.90;;;;;;5044637;28;20513;-83
2021/09/30 04:58:29;;;;;;;124.90;61.53;;;12.10;99.90;;;;;;5045594;28;20106;-82
2021/09/30 05:00:55;;;;;;;123.13;56.10;;;12.10;99.90;;;;;;5045555;28;20052;-83
2021/09/30 05:03:21;;;;;;;111.80;53.85;;;12.00;99.90;;;;;;5045080;28;20449;-84
2021/09/30 05:05:47;;;;;;;111.45;54.80;;;12.00;99.90;;;;;;5046557;28;20140;-83
2021/09/30 05:08:13;;;;;;;88.07;47.45;;;12.00;99.90;;;;;;5043750;28;20478;-83
2021/09/30 05:10:40;;;;;;;95.32;48.53;;;12.00;99.90;;;;;;5042961;28;20017;-84
2021/09/30 05:13:09;;;;;;;99.68;49.13;;;12.00;99.90;;;;;;5043897;28;20039;-83
2021/09/30 05:15:37;;;;;;;91.95;46.85;;;12.00;99.90;;;;;;5070798;28;20471;-84
2021/09/30 05:18:05;;;;;;;84.80;46.47;;;12.10;99.90;;;;;;5044989;28;20185;-85
2021/09/30 05:20:31;;;;;;;85.10;43.60;;;12.00;99.90;;;;;;5042060;28;20078;-84
2021/09/30 05:22:58;;;;;;;87.25;43.53;;;12.00;99.90;;;;;;5040949;28;20017;-83
2021/09/30 05:25:25;;;;;;;88.95;47.72;;;11.90;99.90;;;;;;5046053;28;20032;-83
2021/09/30 05:27:52;;;;;;;82.28;42.72;;;11.90;99.90;;;;;;5042833;28;20039;-83
2021/09/30 05:30:19;;;;;;;87.70;45.90;;;11.80;99.90;;;;;;5044185;28;20421;-83
2021/09/30 05:32:45;;;;;;;73.45;39.90;;;11.80;99.90;;;;;;5052800;28;20508;-83
2021/09/30 05:35:10;;;;;;;75.97;40.15;;;11.70;99.90;;;;;;5052166;28;20025;-82
2021/09/30 05:37:36;;;;;;;56.50;31.08;;;11.70;99.90;;;;;;5050963;28;20032;-82
2021/09/30 05:40:03;;;;;;;58.03;32.08;;;11.60;99.90;;;;;;5051501;28;20029;-82
2021/09/30 05:42:29;;;;;;;48.72;28.60;;;11.50;99.90;;;;;;5050978;28;20021;-82
2021/09/30 05:44:57;;;;;;;52.28;28.13;;;11.40;99.90;;;;;;5051859;28;20053;-82
2021/09/30 05:47:23;;;;;;;50.97;29.02;;;11.40;99.90;;;;;;5052945;28;20032;-80
2021/09/30 05:49:48;;;;;;;42.72;26.13;;;11.40;99.90;;;;;;5051984;28;20036;-83
2021/09/30 05:52:14;;;;;;;47.80;28.90;;;11.40;99.90;;;;;;5048209;28;20372;-82
2021/09/30 05:54:40;;;;;;;50.50;27.20;;;11.40;99.90;;;;;;5035652;28;20108;-83
2021/09/30 05:57:06;;;;;;;48.08;27.15;;;11.40;99.90;;;;;;5050992;28;20079;-82
2021/09/30 05:59:31;;;;;;;53.35;27.95;;;11.50;99.90;;;;;;5050653;28;20021;-83
2021/09/30 06:12:50;;;;;;;39.35;23.25;;;11.20;99.90;;;;;;5046749;28;20676;-83
2021/09/30 06:15:25;;;;;;;41.20;22.58;;;11.10;99.90;;;;;;5029243;28;20029;-81
2021/09/30 06:17:52;;;;;;;34.50;20.10;;;11.20;99.90;;;;;;5036823;28;20025;-81
2021/09/30 06:20:18;;;;;;;35.05;20.92;;;11.20;99.90;;;;;;5049988;28;20052;-82
2021/09/30 06:22:43;;;;;;;36.63;20.77;;;11.20;99.90;;;;;;5048351;28;20021;-81
2021/09/30 06:25:10;;;;;;;36.20;21.63;;;11.30;99.90;;;;;;5046390;28;20033;-81
2021/09/30 06:27:36;;;;;;;31.83;18.92;;;11.30;99.90;;;;;;5029664;28;20026;-81
2021/09/30 06:30:03;;;;;;;35.45;19.90;;;11.40;99.90;;;;;;5036321;28;20040;-82
2021/09/30 06:32:29;;;;;;;33.70;20.45;;;11.50;99.90;;;;;;5049265;28;20025;-83
2021/09/30 06:34:55;;;;;;;34.38;21.70;;;11.50;99.90;;;;;;5058557;28;20023;-82
2021/09/30 06:37:20;;;;;;;27.67;17.17;;;11.50;99.90;;;;;;5056655;28;20072;-82
2021/09/30 06:39:46;;;;;;;29.77;18.45;;;11.40;99.90;;;;;;5049147;28;20037;-82
2021/09/30 06:42:13;;;;;;;30.30;18.70;;;11.40;99.90;;;;;;5051308;28;20528;-82
2021/09/30 06:44:38;;;;;;;28.38;18.15;;;11.40;99.90;;;;;;5051715;28;20021;-83
2021/09/30 06:47:04;;;;;;;26.25;14.82;;;11.50;99.90;;;;;;5051421;28;20441;-83
2021/09/30 06:49:30;;;;;;;23.90;14.82;;;11.40;99.90;;;;;;5051381;28;20035;-82
2021/09/30 06:51:55;;;;;;;23.90;15.13;;;11.40;99.90;;;;;;5051327;28;20061;-82
2021/09/30 06:54:21;;;;;;;25.45;15.63;;;11.30;99.90;;;;;;5051146;28;20127;-83
2021/09/30 06:56:49;;;;;;;26.73;15.32;;;11.40;99.90;;;;;;5051523;28;20032;-83
2021/09/30 06:59:22;;;;;;;26.40;15.18;;;11.50;99.90;;;;;;5051427;28;20131;-83
2021/09/30 07:01:48;;;;;;;;;;;11.40;99.90;;;;;;5046895;28;20041;-83
2021/09/30 07:04:14;;;;;;;26.98;13.93;;;11.50;99.90;;;;;;5052411;28;19912;-83
2021/09/30 07:06:40;;;;;;;19.77;12.88;;;11.50;99.90;;;;;;5032773;28;20075;-83
2021/09/30 07:09:06;;;;;;;21.23;13.30;;;11.50;99.90;;;;;;5031462;28;20095;-82
2021/09/30 07:11:32;;;;;;;23.17;13.25;;;11.50;99.90;;;;;;5032690;28;20378;-83
2021/09/30 07:13:58;;;;;;;22.10;13.43;;;11.60;99.90;;;;;;5031494;28;20025;-83
2021/09/30 07:16:24;;;;;;;19.48;12.07;;;11.70;99.90;;;;;;5038800;28;20025;-83
2021/09/30 07:18:50;;;;;;;20.38;11.98;;;11.90;99.90;;;;;;5051758;28;20417;-83
2021/09/30 07:21:17;;;;;;;22.35;12.55;;;11.90;99.90;;;;;;5050996;28;20044;-83
2021/09/30 07:23:43;;;;;;;19.15;11.25;;;11.90;99.90;;;;;;5050621;28;20375;-83
2021/09/30 07:26:10;;;;;;;19.95;11.45;;;12.10;99.90;;;;;;5051034;28;20029;-82
2021/09/30 07:28:36;;;;;;;21.65;13.15;;;12.40;99.90;;;;;;5052476;28;20378;-83
2021/09/30 07:31:03;;;;;;;15.13;9.63;;;12.50;99.90;;;;;;5052484;28;20025;-83
2021/09/30 07:33:29;;;;;;;18.33;9.55;;;12.50;99.90;;;;;;5052369;28;20907;-83
2021/09/30 07:35:54;;;;;;;17.10;11.32;;;12.40;99.90;;;;;;5056656;28;20029;-83
2021/09/30 07:38:22;;;;;;;17.27;10.38;;;12.30;99.90;;;;;;5054535;28;20486;-83
2021/09/30 07:40:50;;;;;;;18.48;10.98;;;12.20;99.90;;;;;;5056236;28;20032;-82
2021/09/30 07:43:17;;;;;;;16.48;10.43;;;12.40;99.90;;;;;;5054862;28;20013;-83
2021/09/30 07:45:42;;;;;;;17.33;10.45;;;12.40;99.90;;;;;;5056149;28;20025;-82
2021/09/30 07:48:08;;;;;;;17.52;9.73;;;12.40;99.90;;;;;;5054266;28;20040;-82
2021/09/30 07:50:34;;;;;;;17.33;9.90;;;12.40;99.90;;;;;;5054126;28;20024;-83
2021/09/30 07:53:00;;;;;;;17.98;10.90;;;12.50;99.90;;;;;;5054701;28;20028;-82
2021/09/30 07:55:26;;;;;;;16.27;10.05;;;12.50;99.90;;;;;;5054416;28;20386;-83
2021/09/30 07:57:52;;;;;;;16.40;10.35;;;12.40;99.90;;;;;;5055949;28;20139;-83
2021/09/30 08:00:17;;;;;;;15.98;10.30;;;12.40;99.90;;;;;;5054390;28;20547;-83
2021/09/30 08:02:43;;;;;;;14.35;10.25;;;12.30;99.90;;;;;;5054546;28;20552;-83
2021/09/30 08:05:09;;;;;;;18.17;11.13;;;12.30;99.90;;;;;;5054014;28;20518;-83
2021/09/30 08:07:36;;;;;;;14.65;8.82;;;12.20;99.90;;;;;;5054373;28;20043;-83
2021/09/30 08:10:04;;;;;;;13.25;9.13;;;12.20;99.90;;;;;;5054367;28;20032;-82
2021/09/30 08:12:30;;;;;;;15.48;10.10;;;12.20;99.90;;;;;;5055544;28;20021;-82
2021/09/30 08:14:55;;;;;;;14.88;9.40;;;12.30;99.90;;;;;;5054352;28;20036;-82
2021/09/30 08:17:21;;;;;;;15.77;8.57;;;12.20;99.90;;;;;;5036679;28;20025;-82
2021/09/30 08:19:47;;;;;;;15.77;8.82;;;12.20;99.90;;;;;;5049687;28;20029;-82
2021/09/30 08:22:13;;;;;;;15.02;7.70;;;12.20;99.90;;;;;;5054934;28;20033;-82
2021/09/30 08:24:39;;;;;;;14.90;8.40;;;12.10;99.90;;;;;;5053822;28;20131;-83
2021/09/30 08:27:04;;;;;;;11.07;7.38;;;12.10;99.90;;;;;;5051419;28;20083;-82
2021/09/30 08:29:30;;;;;;;12.25;8.20;;;12.10;99.90;;;;;;5035237;28;20032;-82
2021/09/30 08:31:56;;;;;;;12.80;8.07;;;12.00;99.90;;;;;;5035512;28;20033;-82
2021/09/30 08:34:22;;;;;;;11.88;7.80;;;12.20;99.90;;;;;;5033924;28;20030;-82
2021/09/30 08:36:47;;;;;;;11.23;7.28;;;12.20;99.90;;;;;;5046309;28;20486;-82
2021/09/30 08:39:13;;;;;;;12.93;7.53;;;12.30;99.90;;;;;;5053707;28;20021;-82
2021/09/30 08:41:39;;;;;;;11.65;7.47;;;12.50;99.90;;;;;;5053754;28;20044;-82
2021/09/30 08:44:06;;;;;;;16.60;8.30;;;12.60;99.90;;;;;;5055099;28;20017;-82
2021/09/30 08:46:32;;;;;;;13.75;7.15;;;12.60;99.90;;;;;;5052167;28;20104;-83
2021/09/30 08:48:59;;;;;;;10.32;6.63;;;12.70;99.90;;;;;;5043102;28;20475;-82
2021/09/30 08:51:26;;;;;;;14.38;7.53;;;12.80;99.90;;;;;;5049657;28;20052;-82
2021/09/30 08:53:52;;;;;;;9.88;6.88;;;12.80;99.90;;;;;;5052921;28;20024;-82
2021/09/30 08:56:18;;;;;;;9.18;6.45;;;12.80;99.90;;;;;;5053464;28;20075;-82
2021/09/30 08:58:44;;;;;;;14.27;7.72;;;12.80;99.90;;;;;;5053445;28;20470;-82
2021/09/30 09:01:11;;;;;;;12.98;7.55;;;12.80;99.90;;;;;;5054734;28;20041;-82
2021/09/30 09:03:37;;;;;;;9.65;7.15;;;12.70;99.90;;;;;;5053051;28;20092;-82
2021/09/30 09:06:04;;;;;;;7.95;4.65;;;12.80;99.90;;;;;;5054198;28;20060;-82
2021/09/30 09:08:30;;;;;;;12.10;6.05;;;12.80;99.90;;;;;;5053152;28;20028;-83
2021/09/30 09:10:57;;;;;;;7.63;5.80;;;12.90;99.90;;;;;;5053348;28;20048;-82
2021/09/30 09:13:23;;;;;;;10.73;5.90;;;12.80;99.90;;;;;;5053145;28;20035;-82
2021/09/30 09:15:51;;;;;;;8.35;5.45;;;12.70;99.90;;;;;;5053216;28;20534;-82
2021/09/30 09:18:18;;;;;;;9.07;5.60;;;12.60;99.90;;;;;;5053024;28;20017;-82
2021/09/30 09:20:59;;;;;;;8.13;5.13;;;12.50;99.90;;;;;;5052281;28;20036;-83
2021/09/30 09:23:25;;;;;;;9.52;5.00;;;12.30;99.90;;;;;;5052986;28;20025;-82
2021/09/30 09:26:12;;;;;;;8.75;5.28;;;12.20;99.90;;;;;;5052803;28;20398;-82
2021/09/30 09:28:59;;;;;;;7.57;5.30;;;12.20;99.90;;;;;;5054178;28;20017;-82
2021/09/30 09:31:35;;;;;;;7.28;4.55;;;12.20;99.90;;;;;;5053822;28;20564;-82
2021/09/30 09:34:19;;;;;;;6.75;4.93;;;12.20;99.90;;;;;;5052908;28;20033;-82
2021/09/30 09:36:49;;;;;;;6.25;4.75;;;12.10;99.90;;;;;;5052818;28;20032;-82
2021/09/30 09:39:15;;;;;;;7.68;4.75;;;12.10;99.90;;;;;;5052516;28;20487;-82
2021/09/30 09:41:41;;;;;;;9.07;5.25;;;12.00;99.90;;;;;;5053888;28;20450;-82
2021/09/30 09:44:07;;;;;;;11.77;6.75;;;12.10;99.90;;;;;;5054005;28;20108;-82
2021/09/30 09:46:40;;;;;;;31.95;20.25;;;12.10;99.90;;;;;;5053244;28;20517;-82
2021/09/30 09:49:07;;;;;;;16.60;12.25;;;12.00;99.90;;;;;;5052652;28;20356;-82
2021/09/30 09:51:36;;;;;;;11.68;7.35;;;12.10;99.90;;;;;;5051899;28;20017;-82
2021/09/30 09:54:08;;;;;;;10.05;6.30;;;12.10;99.90;;;;;;5053732;28;20025;-82
2021/09/30 09:56:33;;;;;;;11.13;6.93;;;12.30;99.90;;;;;;5052646;28;20048;-82
2021/09/30 09:58:59;;;;;;;8.85;6.75;;;12.30;99.90;;;;;;5052225;28;20761;-82
2021/09/30 10:01:28;;;;;;;10.60;5.95;;;12.20;99.90;;;;;;5052192;28;20033;-82
2021/09/30 10:03:59;;;;;;;7.85;5.40;;;12.30;99.90;;;;;;5053498;28;20017;-82
2021/09/30 10:06:30;;;;;;;8.35;5.63;;;12.40;99.90;;;;;;5053192;28;20036;-82
2021/09/30 10:08:56;;;;;;;8.25;4.22;;;12.40;99.90;;;;;;5052226;28;20386;-83
2021/09/30 10:11:22;;;;;;;8.18;5.22;;;12.30;99.90;;;;;;5052052;28;20486;-82
2021/09/30 10:13:48;;;;;;;21.15;13.20;;;12.40;99.90;;;;;;5052111;28;20028;-83
2021/09/30 10:16:24;;;;;;;23.73;13.30;;;12.40;99.90;;;;;;5053343;28;20029;-82
2021/09/30 10:18:57;;;;;;;17.23;8.95;;;12.50;99.90;;;;;;5052286;28;20044;-83
2021/09/30 10:21:24;;;;;;;50.45;20.30;;;12.60;99.90;;;;;;5052148;28;20102;-82
2021/09/30 10:24:03;;;;;;;106.57;42.83;;;12.70;99.90;;;;;;5051985;28;20029;-82
2021/09/30 10:26:47;;;;;;;44.70;18.50;;;12.70;99.90;;;;;;5051711;28;20025;-82
2021/09/30 10:29:47;;;;;;;47.35;21.05;;;12.70;99.90;;;;;;5051588;28;20082;-82
2021/09/30 10:32:21;;;;;;;26.50;13.13;;;12.90;99.90;;;;;;5051794;28;20053;-82
2021/09/30 10:34:54;;;;;;;30.75;16.25;;;12.90;99.90;;;;;;5052994;28;20024;-82
2021/09/30 10:37:26;;;;;;;22.33;11.75;;;12.90;99.90;;;;;;5053036;28;20017;-83
2021/09/30 10:40:16;;;;;;;4.47;3.55;;;12.90;99.90;;;;;;5051482;28;20025;-82
2021/09/30 10:42:42;;;;;;;9.68;4.55;;;12.80;99.90;;;;;;5052894;28;20029;-82
2021/09/30 10:45:13;;;;;;;26.48;13.13;;;12.80;99.90;;;;;;5052924;28;20114;-83
2021/09/30 10:47:38;;;;;;;17.52;8.35;;;12.80;99.90;;;;;;5051401;28;20032;-82
2021/09/30 10:50:05;;;;;;;13.48;7.70;;;12.80;99.90;;;;;;5052889;28;20017;-82
2021/09/30 10:52:32;;;;;;;13.68;6.95;;;12.80;99.90;;;;;;5051203;28;20036;-82
2021/09/30 10:55:10;;;;;;;14.77;7.90;;;12.80;99.90;;;;;;5050979;28;20364;-82
2021/09/30 10:57:49;;;;;;;11.57;6.40;;;12.90;99.90;;;;;;5052883;28;20017;-82
2021/09/30 11:00:17;;;;;;;32.58;14.50;;;13.00;99.90;;;;;;5052691;28;20033;-83
2021/09/30 11:03:01;;;;;;;18.02;9.60;;;13.00;99.90;;;;;;5051169;28;20116;-82
2021/09/30 11:05:35;;;;;;;12.10;3.65;;;13.10;99.90;;;;;;5051386;28;20060;-82
2021/09/30 11:08:23;;;;;;;4.90;2.97;;;13.10;99.90;;;;;;5051961;28;20033;-82
2021/09/30 11:11:07;;;;;;;7.40;4.20;;;13.20;99.90;;;;;;5055232;28;20023;-82
2021/09/30 11:13:39;;;;;;;6.22;3.97;;;13.40;99.90;;;;;;5055164;28;20068;-82
2021/09/30 11:16:21;;;;;;;6.10;4.32;;;13.30;99.90;;;;;;5055505;28;20056;-82
2021/09/30 11:18:54;;;;;;;7.93;3.70;;;13.60;99.90;;;;;;5055441;28;20032;-82
2021/09/30 11:21:31;;;;;;;;;;;13.70;99.90;;;;;;5055417;28;20115;-82
2021/09/30 11:24:05;;;;;;;7.72;3.83;;;13.70;99.90;;;;;;5055100;28;19962;-82
2021/09/30 11:26:33;;;;;;;5.00;3.15;;;13.70;99.90;;;;;;5054995;28;20032;-83
2021/09/30 11:29:21;;;;;;;4.32;3.10;;;13.80;99.90;;;;;;5055199;28;20393;-82
2021/09/30 11:31:53;;;;;;;4.45;3.22;;;13.80;99.90;;;;;;5056481;28;20103;-83
2021/09/30 11:34:26;;;;;;;6.60;3.60;;;13.70;99.90;;;;;;5055885;28;20100;-83
2021/09/30 11:36:54;;;;;;;8.55;5.18;;;13.70;99.20;;;;;;5055031;28;20021;-82
2021/09/30 11:39:20;;;;;;;6.53;3.20;;;13.70;99.90;;;;;;5056451;28;20073;-82
2021/09/30 11:41:48;;;;;;;12.48;5.53;;;13.80;99.90;;;;;;5054805;28;20090;-82
2021/09/30 11:44:19;;;;;;;9.15;4.68;;;13.90;99.90;;;;;;5054537;28;20021;-82
2021/09/30 11:46:51;;;;;;;7.32;3.40;;;13.80;99.90;;;;;;5054892;28;20021;-82
2021/09/30 11:49:17;;;;;;;3.73;2.80;;;13.80;97.70;;;;;;5054639;28;20029;-82
2021/09/30 11:51:44;;;;;;;9.95;6.22;;;13.90;99.90;;;;;;5054211;28;20405;-82
2021/09/30 11:54:21;;;;;;;11.35;5.35;;;13.80;99.90;;;;;;5050276;28;20033;-82
2021/09/30 11:56:50;;;;;;;11.77;8.32;;;13.90;99.90;;;;;;5052853;28;20024;-83
2021/09/30 11:59:18;;;;;;;10.73;4.22;;;13.90;99.40;;;;;;5047101;28;20094;-82
2021/09/30 12:01:50;;;;;;;9.90;4.32;;;13.90;96.70;;;;;;5052850;28;20044;-82
2021/09/30 12:04:33;;;;;;;4.78;3.53;;;13.90;98.40;;;;;;5052957;28;20642;-82
2021/09/30 12:06:59;;;;;;;9.48;5.03;;;13.90;96.00;;;;;;5036309;28;20029;-83
2021/09/30 12:09:25;;;;;;;7.97;3.45;;;13.90;97.20;;;;;;5044309;28;20488;-81
2021/09/30 12:11:56;;;;;;;5.97;2.90;;;13.90;94.80;;;;;;5052562;28;20031;-83
2021/09/30 12:14:23;;;;;;;6.43;4.38;;;13.80;91.80;;;;;;5040233;28;20390;-82
2021/09/30 12:16:57;;;;;;;6.28;3.17;;;13.80;96.10;;;;;;5046164;28;20033;-82
2021/09/30 12:19:44;;;;;;;5.82;3.40;;;13.80;97.00;;;;;;5049491;28;20033;-82
2021/09/30 12:22:19;;;;;;;6.78;4.93;;;13.80;96.30;;;;;;5050268;28;20033;-81
2021/09/30 12:24:51;;;;;;;8.82;5.45;;;13.80;96.90;;;;;;5051193;28;20497;-83
2021/09/30 12:27:18;;;;;;;4.88;3.35;;;13.90;99.20;;;;;;5050995;28;20479;-82
2021/09/30 12:29:47;;;;;;;4.95;3.40;;;14.00;97.80;;;;;;5051866;28;20029;-82
2021/09/30 12:32:15;;;;;;;10.55;4.43;;;14.00;96.50;;;;;;5051408;28;20438;-82
2021/09/30 12:34:58;;;;;;;8.38;5.55;;;14.00;95.30;;;;;;5051321;28;20556;-83
2021/09/30 12:37:33;;;;;;;18.48;10.43;;;14.00;92.30;;;;;;5051736;28;20029;-83
2021/09/30 12:40:12;;;;;;;34.70;18.75;;;13.90;86.60;;;;;;5051083;28;20119;-81
2021/09/30 12:42:39;;;;;;;20.27;10.38;;;13.90;87.60;;;;;;5051547;28;20039;-84
2021/09/30 12:45:07;;;;;;;4.10;2.67;;;14.00;86.10;;;;;;5041009;28;20105;-84
2021/09/30 12:47:42;;;;;;;20.85;10.65;;;14.00;86.30;;;;;;5046710;28;20036;-82
2021/09/30 12:50:11;;;;;;;9.65;5.45;;;14.00;89.00;;;;;;5050764;28;20108;-82
2021/09/30 12:52:39;;;;;;;7.25;4.38;;;13.90;85.70;;;;;;5051162;28;20043;-83
2021/09/30 12:55:26;;;;;;;9.05;5.10;;;13.90;89.30;;;;;;5052024;28;20021;-83
2021/09/30 12:57:52;;;;;;;11.27;6.15;;;13.90;89.30;;;;;;5050834;28;20120;-83
2021/09/30 13:00:19;;;;;;;20.58;11.15;;;13.90;89.80;;;;;;5046697;28;20033;-82
2021/09/30 13:02:47;;;;;;;21.17;10.25;;;13.80;89.30;;;;;;5052204;28;20060;-83
2021/09/30 13:05:14;;;;;;;15.95;9.13;;;13.80;89.40;;;;;;5049491;28;20441;-85
2021/09/30 13:07:58;;;;;;;6.10;2.80;;;13.90;89.70;;;;;;5050912;28;20047;-83
2021/09/30 13:10:30;;;;;;;7.35;4.30;;;13.80;90.20;;;;;;5033088;28;20030;-84
2021/09/30 13:13:14;;;;;;;6.70;3.65;;;13.90;92.20;;;;;;5037112;28;20051;-82
2021/09/30 13:15:45;;;;;;;12.48;5.88;;;13.90;92.00;;;;;;5033025;28;20167;-83
2021/09/30 13:18:13;;;;;;;16.52;8.55;;;13.80;91.70;;;;;;5042111;28;20043;-82
2021/09/30 13:20:41;;;;;;;13.90;7.50;;;13.80;91.90;;;;;;5052329;28;20040;-82
2021/09/30 13:23:07;;;;;;;6.03;3.58;;;13.90;95.50;;;;;;5052705;28;20124;-83
2021/09/30 13:25:33;;;;;;;4.28;2.20;;;14.00;97.20;;;;;;5054070;28;20468;-83
2021/09/30 13:27:59;;;;;;;3.40;2.22;;;14.00;96.60;;;;;;5051580;28;20124;-84
2021/09/30 13:30:31;;;;;;;7.65;4.60;;;14.00;97.30;;;;;;5049889;28;20025;-83
2021/09/30 13:32:59;;;;;;;7.13;3.67;;;14.00;97.00;;;;;;5051066;28;20041;-83
2021/09/30 13:35:27;;;;;;;5.07;3.58;;;14.00;98.30;;;;;;5051159;28;20260;-83
2021/09/30 13:37:55;;;;;;;5.32;2.80;;;14.00;98.90;;;;;;5049595;28;20136;-84
2021/09/30 13:40:21;;;;;;;7.05;4.47;;;14.00;99.90;;;;;;5052593;28;20390;-84
2021/09/30 13:42:48;;;;;;;7.03;4.93;;;14.00;97.00;;;;;;5050534;28;20039;-84
2021/09/30 13:45:15;;;;;;;6.65;3.55;;;14.00;94.70;;;;;;5031071;28;20084;-83
2021/09/30 13:47:41;;;;;;;5.03;3.13;;;14.00;94.80;;;;;;5033875;28;20444;-83
2021/09/30 13:50:14;;;;;;;3.17;2.60;;;13.90;92.00;;;;;;5051040;28;20033;-83
2021/09/30 13:52:40;;;;;;;;;;;14.00;93.30;;;;;;5049666;28;20025;-83
2021/09/30 13:55:07;;;;;;;5.78;2.92;;;14.10;94.40;;;;;;5049584;28;19909;-83
2021/09/30 13:57:34;;;;;;;4.93;3.03;;;14.30;95.10;;;;;;5050195;28;20352;-82
2021/09/30 14:00:04;;;;;;;5.80;3.83;;;14.30;87.90;;;;;;5046842;28;20028;-83
2021/09/30 14:02:30;;;;;;;3.42;2.50;;;14.30;92.60;;;;;;5050010;28;20391;-84
2021/09/30 14:04:56;;;;;;;4.18;3.17;;;14.30;91.60;;;;;;5049987;28;20037;-83
2021/09/30 14:07:22;;;;;;;11.65;7.00;;;14.30;94.70;;;;;;5051222;28;20032;-84
2021/09/30 14:09:48;;;;;;;5.43;3.55;;;14.40;96.10;;;;;;5050286;28;20063;-84
2021/09/30 14:12:14;;;;;;;4.63;2.72;;;14.30;95.50;;;;;;5049269;28;20490;-84
2021/09/30 14:14:39;;;;;;;3.15;2.65;;;14.30;95.90;;;;;;5050939;28;20052;-82
2021/09/30 14:17:05;;;;;;;8.32;3.72;;;14.30;96.80;;;;;;5049223;28;20074;-83
2021/09/30 14:19:31;;;;;;;12.43;8.25;;;14.30;97.20;;;;;;5050143;28;20041;-84
2021/09/30 14:21:57;;;;;;;16.00;9.45;;;14.30;96.70;;;;;;5049081;28;20086;-85
2021/09/30 14:24:23;;;;;;;11.05;8.02;;;14.30;95.80;;;;;;5049469;28;20393;-83
2021/09/30 14:26:49;;;;;;;10.60;8.30;;;14.40;93.60;;;;;;5050323;28;20427;-85
2021/09/30 14:29:15;;;;;;;14.13;9.40;;;14.40;95.50;;;;;;5049428;28;20063;-85
2021/09/30 14:31:41;;;;;;;16.15;10.68;;;14.40;94.60;;;;;;5050115;28;20017;-84
2021/09/30 14:34:07;;;;;;;11.00;7.18;;;14.30;93.30;;;;;;5048916;28;20033;-83
2021/09/30 14:36:33;;;;;;;14.38;8.48;;;14.40;91.10;;;;;;5049690;28;20021;-83
2021/09/30 14:38:59;;;;;;;13.88;6.72;;;14.30;91.70;;;;;;5057592;28;20040;-83
2021/09/30 14:41:25;;;;;;;10.93;7.15;;;14.30;91.60;;;;;;5041821;28;20053;-83
2021/09/30 14:43:52;;;;;;;14.02;7.00;;;14.20;94.50;;;;;;5052327;28;20022;-82
2021/09/30 14:46:18;;;;;;;12.18;6.90;;;14.20;94.30;;;;;;5050306;28;20478;-81
2021/09/30 14:48:44;;;;;;;14.52;8.85;;;14.10;94.50;;;;;;5051002;28;20024;-81
2021/09/30 14:51:11;;;;;;;15.07;10.90;;;14.10;94.30;;;;;;5050916;28;20017;-81
2021/09/30 14:53:38;;;;;;;14.57;10.13;;;14.10;95.40;;;;;;5048977;28;20071;-81
2021/09/30 14:56:05;;;;;;;15.82;11.63;;;14.10;98.70;;;;;;5050768;28;20025;-81
2021/09/30 14:58:31;;;;;;;20.00;11.95;;;14.20;99.90;;;;;;5051497;28;20024;-81
2021/09/30 15:00:57;;;;;;;30.13;16.92;;;14.10;99.90;;;;;;5049613;28;20052;-82
2021/09/30 15:03:22;;;;;;;17.85;11.43;;;14.10;99.90;;;;;;5047852;28;20021;-81
2021/09/30 15:05:48;;;;;;;14.27;9.02;;;14.00;97.50;;;;;;5049468;28;20390;-81
2021/09/30 15:08:14;;;;;;;21.58;13.57;;;14.00;95.90;;;;;;5050268;28;20033;-81
2021/09/30 15:10:40;;;;;;;20.25;11.95;;;14.00;97.30;;;;;;5052578;28;20051;-81
2021/09/30 15:13:06;;;;;;;36.47;20.35;;;14.00;96.20;;;;;;5051373;28;20590;-81
2021/09/30 15:15:33;;;;;;;66.15;34.97;;;14.00;90.60;;;;;;5051234;28;20536;-81
2021/09/30 15:23:19;;;;;;;57.53;33.03;;;13.90;91.60;;;;;;5051620;28;20064;-82
2021/09/30 15:25:47;;;;;;;20.42;13.05;;;13.90;99.30;;;;;;5050760;28;20028;-82
2021/09/30 15:28:15;;;;;;;22.42;12.05;;;13.90;99.90;;;;;;5050820;28;20028;-82
2021/09/30 15:30:42;;;;;;;8.77;5.72;;;13.80;99.90;;;;;;5051335;28;20100;-82